Time;durP1;ratioP1;P1;durP2;ratioP2;P2;SDS_P1;SDS_P2;PMS_P1;PMS_P2;Temp;Humidity;BMP_temperature;BMP_pressure;BME280_temperature;BME280_humidity;BME280_pressure;Samples;Min_cycle;Max_cycle;Signal;HPM_P1;HPM_P2
2022/04/25 00:01:10;;;;;;;11.57;7.40;;;8.90;99.90;;;;;;4996913;28;20623;-66
2022/04/25 00:03:37;;;;;;;12.40;7.70;;;8.70;99.90;;;;;;4996900;28;20047;-65
2022/04/25 00:06:03;;;;;;;13.43;7.53;;;8.70;99.90;;;;;;4997213;28;20046;-65
2022/04/25 00:08:28;;;;;;;11.27;7.47;;;8.70;99.90;;;;;;4998544;28;20054;-66
2022/04/25 00:10:54;;;;;;;10.82;6.90;;;8.60;99.90;;;;;;5016548;28;20116;-65
2022/04/25 00:13:19;;;;;;;14.00;7.38;;;8.60;99.90;;;;;;5016462;28;20124;-66
2022/04/25 00:15:45;;;;;;;15.35;7.65;;;8.60;99.90;;;;;;5016418;28;20422;-65
2022/04/25 00:18:11;;;;;;;12.50;7.35;;;8.70;99.90;;;;;;5016186;28;20045;-65
2022/04/25 00:20:36;;;;;;;12.38;8.10;;;8.60;99.90;;;;;;5015726;28;20108;-65
2022/04/25 00:23:05;;;;;;;11.07;7.65;;;8.60;99.90;;;;;;4998647;28;20120;-65
2022/04/25 00:25:35;;;;;;;11.57;8.07;;;8.70;99.90;;;;;;5016521;28;20386;-65
2022/04/25 00:28:02;;;;;;;15.98;7.70;;;8.60;99.90;;;;;;4998899;28;20534;-65
2022/04/25 00:30:28;;;;;;;14.75;8.25;;;8.50;99.90;;;;;;4981118;28;20042;-65
2022/04/25 00:32:55;;;;;;;11.93;8.02;;;8.50;99.90;;;;;;4996026;28;20054;-66
2022/04/25 00:35:21;;;;;;;11.82;7.93;;;8.40;99.90;;;;;;4996341;28;20380;-65
2022/04/25 00:37:47;;;;;;;12.13;8.00;;;8.30;99.90;;;;;;4996556;28;20062;-65
2022/04/25 00:40:13;;;;;;;13.15;8.07;;;8.30;99.90;;;;;;4979835;28;20050;-66
2022/04/25 00:42:39;;;;;;;12.30;8.48;;;8.20;99.90;;;;;;4996302;28;20041;-66
2022/04/25 00:45:05;;;;;;;12.43;8.23;;;8.20;99.90;;;;;;4996333;28;20042;-65
2022/04/25 00:47:32;;;;;;;15.45;8.70;;;8.20;99.90;;;;;;4996148;28;20535;-65
2022/04/25 00:49:57;;;;;;;14.07;8.02;;;8.20;99.90;;;;;;5009795;28;20057;-66
2022/04/25 00:52:23;;;;;;;14.38;9.13;;;8.30;99.90;;;;;;5015943;28;20033;-65
2022/04/25 00:54:49;;;;;;;16.08;9.07;;;8.30;99.90;;;;;;4998534;28;20042;-66
2022/04/25 00:57:15;;;;;;;14.15;9.48;;;8.30;99.90;;;;;;4982300;28;20041;-66
2022/04/25 00:59:41;;;;;;;15.85;9.38;;;8.20;99.90;;;;;;5004774;28;20050;-66
2022/04/25 01:02:07;;;;;;;14.27;8.70;;;8.20;99.90;;;;;;4978305;28;20482;-65
2022/04/25 01:04:33;;;;;;;13.27;9.23;;;8.20;99.90;;;;;;4978859;28;20037;-65
2022/04/25 01:06:58;;;;;;;15.95;9.18;;;8.30;99.90;;;;;;4996293;28;20333;-65
2022/04/25 01:09:25;;;;;;;14.25;9.27;;;8.40;99.90;;;;;;5004810;28;20053;-65
2022/04/25 01:11:52;;;;;;;15.48;9.15;;;8.40;99.90;;;;;;5015285;28;20050;-65
2022/04/25 01:14:20;;;;;;;14.68;9.25;;;8.40;99.90;;;;;;5015726;28;20092;-65
2022/04/25 01:16:47;;;;;;;14.60;9.40;;;8.40;99.90;;;;;;5015221;28;20457;-65
2022/04/25 01:19:14;;;;;;;16.65;10.35;;;8.30;99.90;;;;;;5008055;28;20047;-66
2022/04/25 01:21:50;;;;;;;13.90;9.20;;;8.30;99.90;;;;;;4995442;28;20440;-65
2022/04/25 01:27:18;;;;;;;13.77;10.18;;;8.40;99.90;;;;;;4995991;28;20043;-65
2022/04/25 01:29:48;;;;;;;16.30;10.23;;;8.30;99.90;;;;;;5006489;28;20363;-65
2022/04/25 01:32:15;;;;;;;15.93;10.18;;;8.30;99.90;;;;;;5014800;28;20403;-65
2022/04/25 01:34:41;;;;;;;15.80;10.02;;;8.30;99.90;;;;;;5015490;28;20077;-65
2022/04/25 01:37:11;;;;;;;18.25;10.60;;;8.40;99.90;;;;;;5015317;28;20068;-65
2022/04/25 01:39:47;;;;;;;15.73;9.73;;;8.40;99.90;;;;;;5004165;28;20132;-65
2022/04/25 01:42:14;;;;;;;16.73;10.05;;;8.30;99.90;;;;;;4995216;28;20038;-66
2022/04/25 01:44:42;;;;;;;15.05;10.25;;;8.20;99.90;;;;;;4995648;28;20038;-65
2022/04/25 01:47:09;;;;;;;16.83;10.15;;;8.20;99.90;;;;;;4995073;28;20125;-64
2022/04/25 01:49:36;;;;;;;16.90;10.07;;;8.20;99.90;;;;;;5005013;28;20124;-64
2022/04/25 01:52:16;;;;;;;16.27;10.10;;;8.20;99.90;;;;;;5014523;28;20045;-65
2022/04/25 01:54:41;;;;;;;14.25;10.27;;;8.20;99.90;;;;;;5015083;28;20038;-65
2022/04/25 01:57:07;;;;;;;17.77;10.43;;;8.10;99.90;;;;;;5014823;28;20052;-64
2022/04/25 01:59:33;;;;;;;14.88;9.38;;;8.20;99.90;;;;;;5013931;28;20493;-64
2022/04/25 02:02:01;;;;;;;15.65;11.15;;;8.30;99.90;;;;;;5014238;28;20084;-65
2022/04/25 02:04:27;;;;;;;15.77;10.20;;;8.30;99.90;;;;;;5014704;28;20069;-64
2022/04/25 02:06:53;;;;;;;16.55;11.20;;;8.30;99.90;;;;;;5014747;28;20144;-64
2022/04/25 02:09:20;;;;;;;17.65;11.43;;;8.20;99.90;;;;;;5006484;28;20030;-64
2022/04/25 02:11:47;;;;;;;17.95;11.30;;;8.20;99.90;;;;;;4994709;28;20038;-64
2022/04/25 02:14:13;;;;;;;20.17;11.57;;;8.20;99.90;;;;;;4994727;28;20444;-65
2022/04/25 02:16:39;;;;;;;17.55;11.82;;;8.40;99.90;;;;;;4994856;28;20049;-64
2022/04/25 02:19:05;;;;;;;21.60;12.48;;;8.20;99.90;;;;;;5000016;28;20033;-64
2022/04/25 02:21:30;;;;;;;19.92;12.13;;;8.20;99.90;;;;;;5013793;28;20078;-64
2022/04/25 02:23:56;;;;;;;18.48;11.70;;;8.20;99.90;;;;;;5014436;28;20045;-64
2022/04/25 02:26:22;;;;;;;18.77;11.85;;;8.30;99.90;;;;;;5014387;28;20067;-65
2022/04/25 02:28:48;;;;;;;18.27;12.15;;;8.20;99.90;;;;;;5010820;28;20026;-64
2022/04/25 02:31:14;;;;;;;15.23;12.07;;;8.20;99.90;;;;;;4994436;28;20061;-64
2022/04/25 02:33:41;;;;;;;17.45;11.40;;;8.20;99.90;;;;;;4994735;28;20057;-64
2022/04/25 02:36:08;;;;;;;18.17;12.15;;;8.40;99.90;;;;;;4994617;28;20050;-64
2022/04/25 02:38:34;;;;;;;16.95;12.20;;;8.40;99.90;;;;;;4995545;28;20042;-64
2022/04/25 02:41:06;;;;;;;21.10;11.90;;;8.30;99.90;;;;;;5013774;28;20049;-64
2022/04/25 02:43:34;;;;;;;20.85;13.20;;;8.40;99.90;;;;;;5013875;28;20522;-64
2022/04/25 02:46:05;;;;;;;20.08;12.95;;;8.40;99.90;;;;;;5013878;28;20058;-64
2022/04/25 02:48:31;;;;;;;19.50;13.30;;;8.30;99.90;;;;;;5013087;28;20108;-64
2022/04/25 02:50:58;;;;;;;18.77;13.35;;;8.30;99.90;;;;;;4976964;28;20057;-64
2022/04/25 02:53:24;;;;;;;18.85;13.48;;;8.20;99.90;;;;;;4994283;28;20046;-64
2022/04/25 02:55:53;;;;;;;17.17;12.85;;;8.30;99.90;;;;;;4994318;28;20294;-63
2022/04/25 02:58:23;;;;;;;18.50;13.43;;;8.30;99.90;;;;;;4994372;28;20088;-64
2022/04/25 03:00:49;;;;;;;20.75;14.45;;;8.30;99.90;;;;;;5014035;28;20045;-64
2022/04/25 03:03:16;;;;;;;23.63;14.82;;;8.30;99.90;;;;;;5013067;28;20477;-64
2022/04/25 03:05:44;;;;;;;23.20;15.27;;;8.30;99.90;;;;;;5013694;28;20419;-65
2022/04/25 03:08:11;;;;;;;19.50;13.05;;;8.30;99.90;;;;;;5013904;28;20034;-65
2022/04/25 03:10:37;;;;;;;21.70;14.20;;;8.30;99.90;;;;;;4996047;28;20096;-65
2022/04/25 03:13:07;;;;;;;20.42;13.90;;;8.40;99.90;;;;;;4993676;28;20149;-64
2022/04/25 03:15:34;;;;;;;21.60;14.82;;;8.40;99.90;;;;;;4994121;28;20420;-65
2022/04/25 03:18:01;;;;;;;19.67;14.55;;;8.40;99.90;;;;;;4994004;28;20110;-64
2022/04/25 03:20:28;;;;;;;25.77;15.35;;;8.30;99.90;;;;;;4992693;28;20057;-64
2022/04/25 03:22:55;;;;;;;21.88;15.20;;;8.30;99.90;;;;;;4996113;28;20355;-65
2022/04/25 03:25:20;;;;;;;23.08;12.90;;;8.30;99.90;;;;;;5013554;28;20046;-64
2022/04/25 03:27:46;;;;;;;20.48;15.57;;;8.30;99.90;;;;;;5013600;28;20045;-64
2022/04/25 03:30:12;;;;;;;19.23;14.63;;;8.20;99.90;;;;;;4999047;28;20034;-64
2022/04/25 03:32:37;;;;;;;20.80;15.10;;;8.30;99.90;;;;;;4993546;28;20117;-64
2022/04/25 03:35:03;;;;;;;21.13;14.48;;;8.30;99.90;;;;;;4993953;28;20057;-63
2022/04/25 03:37:30;;;;;;;20.25;14.60;;;8.30;99.90;;;;;;4994042;28;20068;-64
2022/04/25 03:39:58;;;;;;;20.95;15.30;;;8.30;99.90;;;;;;5005664;28;20045;-64
2022/04/25 03:42:24;;;;;;;19.42;14.23;;;8.20;99.90;;;;;;5012834;28;20045;-64
2022/04/25 03:44:50;;;;;;;19.33;14.20;;;8.20;99.90;;;;;;5013274;28;20042;-64
2022/04/25 03:47:17;;;;;;;18.92;14.50;;;8.20;99.90;;;;;;5013192;28;20052;-65
2022/04/25 03:49:43;;;;;;;20.15;14.80;;;8.20;99.90;;;;;;5003124;28;20097;-65
2022/04/25 03:52:09;;;;;;;20.25;15.00;;;8.20;99.90;;;;;;4975959;28;20046;-64
2022/04/25 03:57:23;;;;;;;21.67;14.43;;;8.20;99.90;;;;;;4965573;28;20052;-64
2022/04/25 03:59:48;;;;;;;20.17;14.38;;;8.20;99.90;;;;;;5004422;28;20418;-64
2022/04/25 04:02:14;;;;;;;20.55;14.18;;;8.30;99.90;;;;;;5013791;28;20038;-64
2022/04/25 04:04:40;;;;;;;22.73;14.23;;;8.30;99.90;;;;;;5017070;28;20038;-64
2022/04/25 04:07:06;;;;;;;18.98;12.60;;;8.30;99.90;;;;;;5016927;28;20048;-63
2022/04/25 04:09:44;;;;;;;21.27;14.20;;;8.30;99.90;;;;;;5008290;28;20080;-63
2022/04/25 04:12:10;;;;;;;19.08;13.38;;;8.20;99.90;;;;;;4996695;28;20046;-64
2022/04/25 04:14:36;;;;;;;23.00;14.52;;;8.20;99.90;;;;;;4997398;28;20046;-65
2022/04/25 04:17:08;;;;;;;22.70;13.90;;;8.10;99.90;;;;;;4997105;28;20061;-64
2022/04/25 04:19:38;;;;;;;19.42;14.05;;;8.10;99.90;;;;;;5005381;28;20042;-63
2022/04/25 04:22:05;;;;;;;23.45;13.93;;;8.20;99.90;;;;;;5016214;28;20124;-63
2022/04/25 04:24:32;;;;;;;20.88;14.38;;;8.20;99.90;;;;;;5016776;28;20045;-64
2022/04/25 04:27:02;;;;;;;20.55;14.10;;;8.10;99.90;;;;;;4999349;28;20451;-64
2022/04/25 04:29:31;;;;;;;23.45;14.63;;;8.10;99.90;;;;;;4975975;28;20117;-64
2022/04/25 04:31:58;;;;;;;21.48;13.68;;;8.00;99.90;;;;;;4996629;28;20422;-64
2022/04/25 04:34:24;;;;;;;22.65;14.18;;;8.30;99.90;;;;;;4996744;28;20133;-64
2022/04/25 04:36:53;;;;;;;17.83;13.23;;;8.20;99.90;;;;;;4996850;28;20039;-65
2022/04/25 04:39:19;;;;;;;19.70;13.45;;;8.20;99.90;;;;;;5002866;28;20045;-64
2022/04/25 04:41:44;;;;;;;19.95;13.80;;;8.20;99.90;;;;;;5016058;28;20034;-64
2022/04/25 04:44:11;;;;;;;19.63;12.70;;;8.00;99.90;;;;;;5016284;28;20052;-64
2022/04/25 04:46:36;;;;;;;22.95;13.68;;;8.10;99.90;;;;;;5015523;28;20423;-63
2022/04/25 04:49:02;;;;;;;21.25;14.00;;;8.10;99.90;;;;;;5011779;28;20054;-64
2022/04/25 04:51:28;;;;;;;20.45;14.55;;;8.00;99.90;;;;;;4995931;28;20475;-64
2022/04/25 04:53:53;;;;;;;22.20;14.40;;;7.90;99.90;;;;;;4996487;28;20053;-64
2022/04/25 04:56:19;;;;;;;21.40;13.70;;;8.00;99.90;;;;;;5007129;28;20426;-64
2022/04/25 04:58:45;;;;;;;18.60;12.65;;;7.90;99.90;;;;;;5014323;28;20041;-65
2022/04/25 05:01:11;;;;;;;20.42;14.20;;;8.00;99.90;;;;;;5004581;28;20038;-64
2022/04/25 05:03:41;;;;;;;19.42;12.55;;;8.10;99.90;;;;;;5015471;28;20052;-65
2022/04/25 05:06:07;;;;;;;22.67;13.23;;;8.20;99.90;;;;;;5014517;28;20371;-64
2022/04/25 05:08:33;;;;;;;22.02;14.23;;;8.10;99.90;;;;;;5014894;28;20100;-64
2022/04/25 05:10:59;;;;;;;21.88;13.45;;;8.10;99.90;;;;;;5004029;28;20029;-65
2022/04/25 05:13:24;;;;;;;15.85;12.65;;;8.20;99.90;;;;;;5014975;28;20400;-64
2022/04/25 05:15:50;;;;;;;19.95;13.65;;;8.20;99.90;;;;;;5012665;28;20162;-64
2022/04/25 05:18:15;;;;;;;18.42;12.98;;;8.30;99.90;;;;;;5015397;28;20050;-65
2022/04/25 05:20:41;;;;;;;20.88;12.90;;;8.20;99.90;;;;;;5011592;28;20053;-64
2022/04/25 05:23:10;;;;;;;20.52;13.55;;;8.30;99.90;;;;;;5013897;28;20056;-64
2022/04/25 05:25:38;;;;;;;17.85;12.98;;;8.30;99.90;;;;;;5014729;28;20145;-63
2022/04/25 05:28:04;;;;;;;21.42;13.70;;;8.30;99.90;;;;;;5015221;28;20046;-65
2022/04/25 05:30:30;;;;;;;20.98;13.90;;;8.30;99.90;;;;;;4999801;28;20137;-64
2022/04/25 05:32:57;;;;;;;17.42;12.55;;;8.20;99.90;;;;;;4995417;28;20425;-64
2022/04/25 05:35:28;;;;;;;16.98;11.60;;;8.40;99.90;;;;;;4995332;28;20053;-64
2022/04/25 05:37:54;;;;;;;16.17;12.23;;;8.40;99.90;;;;;;4998304;28;20061;-63
2022/04/25 05:40:21;;;;;;;21.42;14.10;;;8.30;99.90;;;;;;5012736;28;20217;-64
2022/04/25 05:42:47;;;;;;;21.35;12.80;;;8.30;99.90;;;;;;5014753;28;20118;-63
2022/04/25 05:45:15;;;;;;;23.23;13.73;;;8.30;99.90;;;;;;5013525;28;20049;-64
2022/04/25 05:47:42;;;;;;;19.60;13.10;;;8.30;99.90;;;;;;5014238;28;20041;-64
2022/04/25 05:52:58;;;;;;;21.15;12.75;;;8.20;99.90;;;;;;5013778;28;20041;-66
2022/04/25 05:55:23;;;;;;;18.48;12.98;;;8.30;99.90;;;;;;5014597;28;20045;-66
2022/04/25 05:57:50;;;;;;;20.15;12.75;;;8.30;99.90;;;;;;5014529;28;20152;-66
2022/04/25 06:00:17;;;;;;;20.35;13.07;;;8.40;99.90;;;;;;5001138;28;20046;-63
2022/04/25 06:02:44;;;;;;;18.60;12.25;;;8.40;99.90;;;;;;4993942;28;20046;-64
2022/04/25 06:05:11;;;;;;;17.27;12.48;;;8.30;99.90;;;;;;4990394;28;20053;-63
2022/04/25 06:07:38;;;;;;;15.55;9.85;;;8.40;99.90;;;;;;5013094;28;20101;-65
2022/04/25 06:10:04;;;;;;;16.73;11.63;;;8.60;99.90;;;;;;5011682;28;20044;-65
2022/04/25 06:12:30;;;;;;;18.58;12.07;;;8.60;99.90;;;;;;5011915;28;20167;-63
2022/04/25 06:14:58;;;;;;;19.27;11.77;;;8.50;99.90;;;;;;5013546;28;20133;-63
2022/04/25 06:17:24;;;;;;;17.27;11.75;;;8.60;99.90;;;;;;5013344;28;20046;-64
2022/04/25 06:19:49;;;;;;;17.67;12.25;;;8.60;99.90;;;;;;5011180;28;20087;-64
2022/04/25 06:22:18;;;;;;;17.10;10.48;;;8.50;99.90;;;;;;4995640;28;20037;-64
2022/04/25 06:24:43;;;;;;;16.42;12.10;;;8.60;99.90;;;;;;5013033;28;20029;-64
2022/04/25 06:27:09;;;;;;;18.02;10.98;;;8.60;99.90;;;;;;5013523;28;20073;-64
2022/04/25 06:29:35;;;;;;;16.73;9.93;;;8.60;99.90;;;;;;5011296;28;20109;-64
2022/04/25 06:32:05;;;;;;;16.20;10.13;;;8.70;99.90;;;;;;5012888;28;20073;-64
2022/04/25 06:34:32;;;;;;;16.17;10.75;;;8.70;99.90;;;;;;5012883;28;20034;-65
2022/04/25 06:36:58;;;;;;;18.27;10.68;;;8.70;99.90;;;;;;5014201;28;20128;-64
2022/04/25 06:39:23;;;;;;;17.25;10.13;;;8.70;99.90;;;;;;5008191;28;20117;-65
2022/04/25 06:41:49;;;;;;;15.75;10.75;;;8.70;99.90;;;;;;4993921;28;20034;-64
2022/04/25 06:44:15;;;;;;;17.52;10.35;;;8.90;99.90;;;;;;4993294;28;20034;-65
2022/04/25 06:46:40;;;;;;;12.60;10.07;;;8.80;99.90;;;;;;5013457;28;20058;-64
2022/04/25 06:49:23;;;;;;;19.42;10.68;;;8.80;99.90;;;;;;5010449;28;20113;-64
2022/04/25 06:51:50;;;;;;;14.77;10.75;;;8.90;99.90;;;;;;5002565;28;20112;-64
2022/04/25 06:54:17;;;;;;;15.43;11.38;;;8.90;99.90;;;;;;5013826;28;20431;-64
2022/04/25 06:56:43;;;;;;;17.60;10.80;;;8.80;99.90;;;;;;5013883;28;20132;-65
2022/04/25 06:59:08;;;;;;;18.75;10.82;;;8.90;99.90;;;;;;5009764;28;20109;-64
2022/04/25 07:01:35;;;;;;;16.10;10.68;;;9.00;99.90;;;;;;4976557;28;20421;-64
2022/04/25 07:04:01;;;;;;;17.55;12.10;;;9.00;99.90;;;;;;4994234;28;20046;-64
2022/04/25 07:06:27;;;;;;;16.48;11.13;;;8.90;99.90;;;;;;4993784;28;20049;-63
2022/04/25 07:08:53;;;;;;;16.40;11.38;;;9.00;99.90;;;;;;5000918;28;20033;-65
2022/04/25 07:11:19;;;;;;;17.23;10.88;;;9.00;99.90;;;;;;4993686;28;20503;-64
2022/04/25 07:13:45;;;;;;;18.83;12.10;;;9.00;99.90;;;;;;4993729;28;20498;-65
2022/04/25 07:16:12;;;;;;;16.52;11.15;;;9.00;99.90;;;;;;4993942;28;20130;-64
2022/04/25 07:18:38;;;;;;;15.43;10.88;;;9.20;99.90;;;;;;4993318;28;20057;-64
2022/04/25 07:29:22;;;;;;;19.05;11.10;;;9.20;99.90;;;;;;5010135;28;20042;-65
2022/04/25 07:31:49;;;;;;;18.92;12.75;;;9.30;99.90;;;;;;5012650;28;20030;-64
2022/04/25 07:34:14;;;;;;;19.55;12.10;;;9.10;99.90;;;;;;5013447;28;20080;-64
2022/04/25 07:36:40;;;;;;;19.50;11.95;;;9.20;99.90;;;;;;5013400;28;20503;-65
2022/04/25 07:39:05;;;;;;;19.45;12.07;;;9.30;99.90;;;;;;5012187;28;20105;-64
2022/04/25 07:41:31;;;;;;;16.80;11.27;;;9.20;99.90;;;;;;4997096;28;20108;-64
2022/04/25 07:43:58;;;;;;;21.00;13.18;;;9.30;99.90;;;;;;5013802;28;20462;-65
2022/04/25 07:46:25;;;;;;;24.92;12.07;;;9.30;99.90;;;;;;4999256;28;20046;-64
2022/04/25 07:48:52;;;;;;;17.73;11.18;;;9.20;99.90;;;;;;5015921;28;20065;-64
2022/04/25 07:51:18;;;;;;;19.95;12.40;;;9.20;99.90;;;;;;4980130;28;20121;-65
2022/04/25 07:53:44;;;;;;;17.88;13.05;;;9.20;99.90;;;;;;4997068;28;20525;-64
2022/04/25 07:56:10;;;;;;;17.67;12.27;;;9.00;99.90;;;;;;5006544;28;20046;-63
2022/04/25 07:58:36;;;;;;;19.73;11.60;;;9.10;99.90;;;;;;5016332;28;20812;-64
2022/04/25 08:01:03;;;;;;;18.08;12.43;;;9.20;99.90;;;;;;5015318;28;20424;-64
2022/04/25 08:03:29;;;;;;;17.85;11.95;;;9.20;99.90;;;;;;5016592;28;20324;-64
2022/04/25 08:05:54;;;;;;;17.25;12.45;;;9.10;99.90;;;;;;5017099;28;20045;-64
2022/04/25 08:08:20;;;;;;;16.00;12.20;;;9.10;99.90;;;;;;5016776;28;20037;-64
2022/04/25 08:10:46;;;;;;;18.75;12.23;;;9.30;99.90;;;;;;4999930;28;20046;-63
2022/04/25 08:18:40;;;;;;;17.38;11.77;;;9.30;99.90;;;;;;4996739;28;20463;-65
2022/04/25 08:21:06;;;;;;;18.00;12.40;;;9.30;99.90;;;;;;4998555;28;20053;-64
2022/04/25 08:23:32;;;;;;;17.75;10.73;;;9.20;99.90;;;;;;5016079;28;20054;-64
2022/04/25 08:25:57;;;;;;;18.88;12.43;;;9.20;99.90;;;;;;5016167;28;20038;-64
2022/04/25 08:28:25;;;;;;;15.25;11.38;;;9.30;99.90;;;;;;5016412;28;20045;-64
2022/04/25 08:30:52;;;;;;;15.07;10.63;;;9.30;99.90;;;;;;4999287;28;20042;-64
2022/04/25 08:33:18;;;;;;;17.08;11.43;;;9.30;99.90;;;;;;4995997;28;20464;-64
2022/04/25 08:35:44;;;;;;;15.77;11.57;;;9.30;99.90;;;;;;4996815;28;20101;-65
2022/04/25 08:38:10;;;;;;;19.08;11.43;;;9.10;99.90;;;;;;4996623;28;20046;-64
2022/04/25 08:40:37;;;;;;;21.10;10.18;;;9.20;99.90;;;;;;5010954;28;20033;-65
2022/04/25 08:43:04;;;;;;;15.95;11.82;;;9.10;99.90;;;;;;5015642;28;20089;-63
2022/04/25 08:45:31;;;;;;;18.23;12.18;;;9.00;99.90;;;;;;5015874;28;20069;-64
2022/04/25 08:47:58;;;;;;;16.23;11.90;;;8.90;99.90;;;;;;4998319;28;20046;-64
2022/04/25 08:50:26;;;;;;;17.83;12.00;;;8.70;99.90;;;;;;5002540;28;20066;-64
2022/04/25 08:52:53;;;;;;;17.10;11.93;;;8.70;99.90;;;;;;4995934;28;20393;-64
2022/04/25 08:55:20;;;;;;;16.33;11.00;;;8.60;99.90;;;;;;4995834;28;20460;-65
2022/04/25 08:57:47;;;;;;;21.30;13.65;;;8.60;99.90;;;;;;4996244;28;20053;-66
2022/04/25 09:00:15;;;;;;;19.13;12.23;;;8.60;99.90;;;;;;5007587;28;20113;-65
2022/04/25 09:02:41;;;;;;;19.10;12.27;;;8.70;99.90;;;;;;5014931;28;20046;-64
2022/04/25 09:05:10;;;;;;;15.23;11.27;;;8.70;99.90;;;;;;5015683;28;20363;-64
2022/04/25 09:07:37;;;;;;;13.20;9.98;;;8.70;99.90;;;;;;5015384;28;20033;-64
2022/04/25 09:10:08;;;;;;;15.93;10.15;;;8.80;99.90;;;;;;5005185;28;20097;-65
2022/04/25 09:12:35;;;;;;;14.95;9.82;;;8.80;99.90;;;;;;4995559;28;20054;-64
2022/04/25 09:15:01;;;;;;;15.90;10.13;;;8.80;99.90;;;;;;4995833;28;20136;-64
2022/04/25 09:17:26;;;;;;;16.45;10.00;;;8.80;99.90;;;;;;4996172;28;20092;-64
2022/04/25 09:19:52;;;;;;;13.52;10.15;;;8.80;99.90;;;;;;5004132;28;20037;-64
2022/04/25 09:22:36;;;;;;;12.80;10.40;;;8.70;99.90;;;;;;5014986;28;20109;-65
2022/04/25 09:25:11;;;;;;;12.95;9.57;;;8.80;99.90;;;;;;5015012;28;20050;-64
2022/04/25 09:27:37;;;;;;;;;;;8.80;99.90;;;;;;5015735;28;20103;-65
2022/04/25 09:30:18;;;;;;;13.05;9.70;;;8.80;99.90;;;;;;5004886;28;20252;-64
2022/04/25 09:32:47;;;;;;;15.82;10.00;;;8.90;99.90;;;;;;4995213;28;20046;-64
2022/04/25 09:35:35;;;;;;;15.07;10.20;;;8.90;99.90;;;;;;4995554;28;20120;-65
2022/04/25 09:38:03;;;;;;;16.05;10.45;;;8.90;99.90;;;;;;4995293;28;20050;-64
2022/04/25 09:40:31;;;;;;;13.48;10.88;;;8.80;99.90;;;;;;5008536;28;20041;-64
2022/04/25 09:43:11;;;;;;;14.98;11.48;;;8.80;99.90;;;;;;4997067;28;20049;-64
2022/04/25 09:45:40;;;;;;;17.13;11.52;;;8.70;99.90;;;;;;5014519;28;20096;-64
2022/04/25 09:48:14;;;;;;;16.98;11.45;;;8.80;99.90;;;;;;5013860;28;20034;-64
2022/04/25 09:50:40;;;;;;;17.27;12.73;;;8.90;99.90;;;;;;4999196;28;20368;-64
2022/04/25 09:53:08;;;;;;;15.85;12.55;;;8.90;99.90;;;;;;4976603;28;20061;-64
2022/04/25 09:55:36;;;;;;;19.40;12.70;;;8.90;99.90;;;;;;4994198;28;20093;-64
2022/04/25 09:58:18;;;;;;;16.60;12.50;;;8.90;99.90;;;;;;4994356;28;20201;-64
2022/04/25 10:00:44;;;;;;;18.88;13.57;;;8.90;99.90;;;;;;5008230;28;20537;-65
2022/04/25 10:03:10;;;;;;;18.23;12.98;;;9.00;99.90;;;;;;5013226;28;20103;-64
2022/04/25 10:05:42;;;;;;;19.85;13.77;;;9.10;99.90;;;;;;5013650;28;20312;-64
2022/04/25 10:08:09;;;;;;;17.10;13.73;;;9.20;99.90;;;;;;5013298;28;20038;-64
2022/04/25 10:10:49;;;;;;;19.02;11.93;;;9.20;99.90;;;;;;4999208;28;20474;-65
2022/04/25 10:13:15;;;;;;;19.17;14.30;;;9.30;99.90;;;;;;4976522;28;20030;-64
2022/04/25 10:15:42;;;;;;;23.30;11.63;;;9.20;99.90;;;;;;4993907;28;20057;-64
2022/04/25 10:18:09;;;;;;;16.92;11.23;;;9.40;99.90;;;;;;4993846;28;20034;-64
2022/04/25 10:20:36;;;;;;;17.77;12.45;;;9.40;99.90;;;;;;5007064;28;20081;-64
2022/04/25 10:23:09;;;;;;;16.08;11.88;;;9.30;99.90;;;;;;5013121;28;20053;-64
2022/04/25 10:25:39;;;;;;;18.88;13.23;;;9.30;99.90;;;;;;5013503;28;20071;-64
2022/04/25 10:28:08;;;;;;;19.48;13.10;;;9.30;99.90;;;;;;5013286;28;20117;-64
2022/04/25 10:30:36;;;;;;;19.73;13.25;;;9.30;99.90;;;;;;4999361;28;20039;-64
2022/04/25 10:33:21;;;;;;;16.80;12.82;;;9.30;99.90;;;;;;4993252;28;20121;-64
2022/04/25 10:35:49;;;;;;;18.48;13.77;;;9.30;99.90;;;;;;4993228;28;20475;-64
2022/04/25 10:38:47;;;;;;;16.65;12.23;;;9.40;99.90;;;;;;4976256;28;20490;-64
2022/04/25 10:44:19;;;;;;;14.77;11.98;;;9.70;99.90;;;;;;5012869;28;20164;-64
2022/04/25 10:47:03;;;;;;;13.70;11.55;;;9.70;99.90;;;;;;5007639;28;133517;-64
2022/04/25 10:49:37;;;;;;;14.30;9.75;;;9.70;99.90;;;;;;5008989;28;20048;-64
2022/04/25 10:52:26;;;;;;;15.65;11.82;;;9.90;99.90;;;;;;4998607;28;20457;-64
2022/04/25 10:54:51;;;;;;;13.13;10.20;;;10.00;99.90;;;;;;5012484;28;20042;-64
2022/04/25 10:57:18;;;;;;;15.23;10.68;;;10.10;99.90;;;;;;5013670;28;20044;-64
2022/04/25 10:59:44;;;;;;;13.43;10.45;;;10.20;99.90;;;;;;5001519;28;20045;-64
2022/04/25 11:02:27;;;;;;;15.88;10.20;;;10.20;99.90;;;;;;4993449;28;20034;-64
2022/04/25 11:05:10;;;;;;;13.93;7.95;;;10.20;99.90;;;;;;4993948;28;20046;-63
2022/04/25 11:07:37;;;;;;;14.57;9.37;;;10.30;99.90;;;;;;4994048;28;20046;-65
2022/04/25 11:10:04;;;;;;;15.25;8.75;;;10.10;99.90;;;;;;5002626;28;20388;-64
2022/04/25 11:12:58;;;;;;;15.68;9.15;;;10.10;99.90;;;;;;5012315;28;20133;-64
2022/04/25 11:15:47;;;;;;;12.38;9.35;;;10.00;99.90;;;;;;5013666;28;20056;-64
2022/04/25 11:18:33;;;;;;;12.25;8.02;;;10.00;99.90;;;;;;5012932;28;20427;-65
2022/04/25 11:21:13;;;;;;;16.05;9.98;;;9.90;99.90;;;;;;4996580;28;20050;-65
2022/04/25 11:23:44;;;;;;;14.05;8.80;;;9.70;99.90;;;;;;4993365;28;20440;-65
2022/04/25 11:26:23;;;;;;;14.57;9.57;;;9.90;99.90;;;;;;4993945;28;20038;-64
2022/04/25 11:28:58;;;;;;;11.95;8.50;;;9.90;99.90;;;;;;4993407;28;20046;-64
2022/04/25 11:31:25;;;;;;;11.02;8.35;;;9.90;99.90;;;;;;5012734;28;20048;-64
2022/04/25 11:33:53;;;;;;;14.15;9.27;;;10.10;99.90;;;;;;5013330;28;20272;-64
2022/04/25 11:36:21;;;;;;;11.02;8.45;;;10.20;99.90;;;;;;5013291;28;20116;-64
2022/04/25 11:41:33;;;;;;;10.68;7.60;;;10.50;99.90;;;;;;4993273;28;20121;-64
2022/04/25 11:43:59;;;;;;;12.68;8.20;;;10.60;99.90;;;;;;5010245;28;20038;-64
2022/04/25 11:46:26;;;;;;;11.23;7.72;;;10.60;99.90;;;;;;5012698;28;20108;-65
2022/04/25 11:48:53;;;;;;;10.02;7.93;;;10.80;99.90;;;;;;5013276;28;20112;-64
2022/04/25 11:51:30;;;;;;;11.30;7.75;;;11.00;99.90;;;;;;4993933;28;20101;-64
2022/04/25 11:54:06;;;;;;;10.43;7.50;;;11.20;99.90;;;;;;5000788;28;20057;-63
2022/04/25 11:56:40;;;;;;;11.73;8.07;;;11.10;99.90;;;;;;5012226;28;20539;-63
2022/04/25 11:59:18;;;;;;;11.70;7.10;;;11.30;99.90;;;;;;5011373;28;20443;-64
2022/04/25 12:01:47;;;;;;;13.68;7.40;;;11.30;99.90;;;;;;4993039;28;20053;-64
2022/04/25 12:04:24;;;;;;;12.73;8.02;;;11.30;99.90;;;;;;4976296;28;20066;-64
2022/04/25 12:07:07;;;;;;;11.80;7.05;;;11.40;99.90;;;;;;4993645;28;20042;-65
2022/04/25 12:18:14;;;;;;;10.88;6.38;;;11.90;99.90;;;;;;5013001;28;20050;-65
2022/04/25 12:20:41;;;;;;;8.73;5.85;;;11.90;99.90;;;;;;4998960;28;20069;-64
2022/04/25 12:23:07;;;;;;;11.80;7.55;;;12.00;99.90;;;;;;4993494;28;20100;-64
2022/04/25 12:25:40;;;;;;;13.75;7.28;;;12.00;99.90;;;;;;4979563;28;20436;-65
2022/04/25 12:28:15;;;;;;;9.77;7.13;;;12.00;99.90;;;;;;4996613;28;20413;-64
2022/04/25 12:30:48;;;;;;;11.50;7.00;;;12.00;99.90;;;;;;5010035;28;20432;-65
2022/04/25 12:33:16;;;;;;;10.05;6.90;;;12.10;99.90;;;;;;5015988;28;20046;-64
2022/04/25 12:35:43;;;;;;;9.60;7.40;;;12.30;99.90;;;;;;5015988;28;20351;-66
2022/04/25 12:38:09;;;;;;;9.55;7.20;;;12.40;99.90;;;;;;4998841;28;20133;-64
2022/04/25 12:40:57;;;;;;;10.98;7.43;;;12.30;99.90;;;;;;5003075;28;20460;-65
2022/04/25 12:43:45;;;;;;;11.68;7.53;;;12.40;99.90;;;;;;5007875;28;20041;-64
2022/04/25 12:46:12;;;;;;;11.35;7.78;;;12.60;99.90;;;;;;5015298;28;20077;-64
2022/04/25 12:49:01;;;;;;;10.82;7.47;;;12.70;99.90;;;;;;5015776;28;20053;-65
2022/04/25 12:51:35;;;;;;;10.93;8.00;;;13.00;99.90;;;;;;5015295;28;20076;-64
2022/04/25 12:54:02;;;;;;;13.70;8.00;;;12.90;99.90;;;;;;5015994;28;20053;-64
2022/04/25 12:56:34;;;;;;;13.27;8.07;;;12.90;99.90;;;;;;5015952;28;20037;-65
2022/04/25 12:59:01;;;;;;;8.75;7.15;;;12.90;99.90;;;;;;5015034;28;20137;-64
2022/04/25 13:01:32;;;;;;;10.15;6.72;;;13.00;99.90;;;;;;5014907;28;20045;-65
2022/04/25 13:04:17;;;;;;;11.43;6.47;;;13.10;99.90;;;;;;5015449;28;20517;-65
2022/04/25 13:06:43;;;;;;;10.43;7.07;;;13.10;99.90;;;;;;4997895;28;20363;-65
2022/04/25 13:09:11;;;;;;;11.13;8.00;;;12.90;99.90;;;;;;5014434;28;20041;-65
2022/04/25 13:11:40;;;;;;;10.32;7.18;;;13.10;99.90;;;;;;4978414;28;20400;-65
2022/04/25 13:14:06;;;;;;;12.38;7.88;;;13.20;99.90;;;;;;4995932;28;20045;-65
2022/04/25 13:16:31;;;;;;;12.15;7.35;;;13.20;99.90;;;;;;4981885;28;20045;-64
2022/04/25 13:18:57;;;;;;;11.20;8.15;;;13.20;99.90;;;;;;5015574;28;20053;-65
2022/04/25 13:21:24;;;;;;;11.38;7.72;;;13.10;99.90;;;;;;5014266;28;20352;-64